Bachu, China
Current Conditions -  °F | °C
As of 5:00 PM on Monday 22 Dec 2014 (Local Time) from ZWSH Reporting Station
Clear Clear  
Wind Chill: 32°   Ceiling: Unl
Heat Index: 32°   Visibility: 4mi
Dew Point: 10°   Wind: 2mph
Humidity: 41%   Direction: NA
Pressure: 30.06"   Gusts: NA
Location:  39.8°N, 78.57°E
Report Text: ZWSH 220900Z VRB01MPS 6000 NSC 00/M12 Q1018 NOSIG
Loading
Personal Weather Stations






























Interactive Weather Map New forecast layout! Learn more

10-Day Weather Forecast

Advertisements
Track Severe Weather on mobile